createdAt,value
2023-04-26T00:02:14.011Z,102211.00
2023-04-26T00:04:41.544Z,102208.38
2023-04-26T00:07:08.759Z,102210.13
2023-04-26T00:09:42.247Z,102203.06
2023-04-26T00:12:10.522Z,102212.56
2023-04-26T00:14:37.430Z,102219.47
2023-04-26T00:17:09.265Z,102202.94
2023-04-26T00:19:36.038Z,102207.28
2023-04-26T00:22:11.216Z,102211.56
2023-04-26T00:24:38.277Z,102211.44
2023-04-26T00:27:10.913Z,102213.06
2023-04-26T00:29:38.180Z,102210.53
2023-04-26T00:32:11.069Z,102204.41
2023-04-26T00:34:38.470Z,102208.94
2023-04-26T00:37:06.333Z,102185.53
2023-04-26T00:39:33.646Z,102154.19
2023-04-26T00:42:02.712Z,102192.16
2023-04-26T00:44:31.706Z,102202.34
2023-04-26T00:47:00.703Z,102164.16
2023-04-26T00:49:28.364Z,102162.50
2023-04-26T00:51:55.637Z,102161.56
2023-04-26T00:54:22.864Z,102172.72
2023-04-26T00:56:52.396Z,102161.56
2023-04-26T00:59:24.043Z,102137.88
2023-04-26T01:01:53.385Z,102175.28
2023-04-26T01:04:21.005Z,102195.19
2023-04-26T01:06:48.459Z,102196.94
2023-04-26T01:09:16.442Z,102194.38
2023-04-26T01:11:47.298Z,102197.88
2023-04-26T01:14:15.631Z,102192.75
2023-04-26T01:16:42.492Z,102203.22
2023-04-26T01:19:14.725Z,102207.59
2023-04-26T01:21:42.107Z,102204.19
2023-04-26T01:24:13.490Z,102193.03
2023-04-26T01:26:48.608Z,102191.31
2023-04-26T01:29:19.721Z,102203.25
2023-04-26T01:31:47.450Z,102203.25
2023-04-26T01:34:15.970Z,102204.22
2023-04-26T01:36:42.783Z,102203.34
2023-04-26T01:39:10.438Z,102204.34
2023-04-26T01:41:37.564Z,102207.84
2023-04-26T01:44:05.117Z,102205.31
2023-04-26T01:46:32.459Z,102208.69
2023-04-26T01:48:59.499Z,102210.47
2023-04-26T01:51:27.394Z,102192.25
2023-04-26T01:53:53.832Z,102194.94
2023-04-26T01:56:22.899Z,102192.44
2023-04-26T01:58:49.797Z,102188.13
2023-04-26T02:01:18.266Z,102190.78
2023-04-26T02:03:44.858Z,102195.97
2023-04-26T02:06:11.752Z,102192.44
2023-04-26T02:08:38.298Z,102192.63
2023-04-26T02:11:06.331Z,102189.13
2023-04-26T02:13:33.094Z,102193.84
2023-04-26T02:15:59.931Z,102189.78
2023-04-26T02:18:27.129Z,102204.03
2023-04-26T02:20:54.562Z,102182.47
2023-04-26T02:23:21.468Z,102193.88
2023-04-26T02:25:48.810Z,102196.75
2023-04-26T02:28:16.454Z,102188.13
2023-04-26T02:30:43.462Z,102182.25
2023-04-26T02:33:11.991Z,102201.38
2023-04-26T02:35:39.371Z,102190.31
2023-04-26T02:38:06.386Z,102201.66
2023-04-26T02:40:34.852Z,102191.31
2023-04-26T02:43:01.686Z,102194.97
2023-04-26T02:45:30.350Z,102192.41
2023-04-26T02:47:57.047Z,102191.56
2023-04-26T02:50:26.723Z,102195.09
2023-04-26T02:52:53.339Z,102198.59
2023-04-26T02:55:20.908Z,102200.41
2023-04-26T02:57:47.562Z,102207.38
2023-04-26T03:00:14.509Z,102198.72
2023-04-26T03:02:41.875Z,102189.19
2023-04-26T03:05:10.018Z,102180.41
2023-04-26T03:07:37.777Z,102190.88
2023-04-26T03:10:06.194Z,102181.28
2023-04-26T03:12:33.433Z,102196.00
2023-04-26T03:15:00.149Z,102158.72
2023-04-26T03:17:27.518Z,102193.03
2023-04-26T03:19:55.515Z,102193.78
2023-04-26T03:22:22.977Z,102191.72
2023-04-26T03:24:50.016Z,102186.22
2023-04-26T03:27:18.059Z,102184.28
2023-04-26T03:29:44.946Z,102181.53
2023-04-26T03:32:12.089Z,102178.00
2023-04-26T03:34:39.299Z,102165.94
2023-04-26T03:37:11.595Z,102172.03
2023-04-26T03:39:38.633Z,102173.59
2023-04-26T03:42:06.082Z,102175.44
2023-04-26T03:44:33.631Z,102168.50
2023-04-26T03:47:00.370Z,102172.13
2023-04-26T03:49:27.424Z,102169.69
2023-04-26T03:51:54.398Z,102168.06
2023-04-26T03:54:21.222Z,102132.84
2023-04-26T03:56:48.171Z,102171.03
2023-04-26T03:59:15.113Z,102174.63
2023-04-26T04:01:42.203Z,102174.00
2023-04-26T04:04:10.215Z,102176.66
2023-04-26T04:06:40.509Z,102177.72
2023-04-26T04:09:07.558Z,102151.66
2023-04-26T04:11:35.342Z,102169.09
2023-04-26T04:14:02.923Z,102169.09
2023-04-26T04:16:30.696Z,102170.88
2023-04-26T04:18:59.379Z,102171.84
2023-04-26T04:21:28.051Z,102161.47
2023-04-26T04:23:55.281Z,102172.06
2023-04-26T04:26:22.239Z,102167.84
2023-04-26T04:28:49.087Z,102169.72
2023-04-26T04:31:16.116Z,102173.22
2023-04-26T04:33:43.168Z,102188.94
2023-04-26T04:36:10.324Z,102185.44
2023-04-26T04:38:37.417Z,102188.09
2023-04-26T04:41:08.282Z,102191.59
2023-04-26T04:43:34.961Z,102194.22
2023-04-26T04:46:01.852Z,102192.34
2023-04-26T04:48:29.233Z,102187.38
2023-04-26T04:51:04.988Z,102175.91
2023-04-26T04:53:33.725Z,102188.94
2023-04-26T04:56:01.456Z,102177.69
2023-04-26T04:58:28.206Z,102188.97
2023-04-26T05:00:56.704Z,102182.94
2023-04-26T05:03:23.605Z,102181.25
2023-04-26T05:05:53.126Z,102189.94
2023-04-26T05:08:20.170Z,102189.88
2023-04-26T05:10:47.806Z,102174.28
2023-04-26T05:13:14.555Z,102197.59
2023-04-26T05:15:41.300Z,102213.28
2023-04-26T05:18:08.011Z,102201.75
2023-04-26T05:20:34.617Z,102206.84
2023-04-26T05:23:01.733Z,102197.88
2023-04-26T05:25:28.762Z,102202.97
2023-04-26T05:27:55.414Z,102192.50
2023-04-26T05:30:22.231Z,102175.94
2023-04-26T05:32:51.070Z,102193.91
2023-04-26T05:35:18.096Z,102197.25
2023-04-26T05:37:46.283Z,102195.28
2023-04-26T05:40:14.619Z,102201.28
2023-04-26T05:42:41.670Z,102197.69
2023-04-26T05:45:10.032Z,102200.06
2023-04-26T05:47:37.693Z,102205.84
2023-04-26T05:50:06.125Z,102209.13
2023-04-26T05:52:34.897Z,102207.94
2023-04-26T05:55:06.152Z,102195.25
2023-04-26T05:57:33.209Z,102200.13
2023-04-26T06:00:00.129Z,102205.91
2023-04-26T06:02:27.443Z,102201.31
2023-04-26T06:04:54.876Z,102204.69
2023-04-26T06:07:21.928Z,102194.16
2023-04-26T06:09:49.057Z,102206.00
2023-04-26T06:12:17.027Z,102199.13
2023-04-26T06:14:45.807Z,102203.19
2023-04-26T06:17:12.555Z,102203.09
2023-04-26T06:19:40.376Z,102204.81
2023-04-26T06:22:09.684Z,102200.28
2023-04-26T06:24:40.169Z,102210.00
2023-04-26T06:27:08.112Z,102214.03
2023-04-26T06:29:36.433Z,102192.31
2023-04-26T06:32:04.132Z,102208.75
2023-04-26T06:34:33.528Z,102220.72
2023-04-26T06:37:00.433Z,102224.94
2023-04-26T06:39:27.162Z,102213.47
2023-04-26T06:41:53.897Z,102222.06
2023-04-26T06:44:23.579Z,102223.59
2023-04-26T06:46:54.448Z,102220.19
2023-04-26T06:49:24.208Z,102232.41
2023-04-26T06:51:53.068Z,102225.47
2023-04-26T06:54:27.434Z,102227.28
2023-04-26T06:56:56.033Z,102229.38
2023-04-26T06:59:23.152Z,102224.81
2023-04-26T07:01:50.253Z,102240.56
2023-04-26T07:04:18.843Z,102212.97
2023-04-26T07:06:46.451Z,102245.56
2023-04-26T07:09:14.319Z,102238.84
2023-04-26T07:11:41.259Z,102233.16
2023-04-26T07:14:08.137Z,102240.88
2023-04-26T07:16:38.268Z,102239.47
2023-04-26T07:19:08.481Z,102239.13
2023-04-26T07:21:35.129Z,102237.91
2023-04-26T07:24:01.776Z,102240.50
2023-04-26T07:26:30.408Z,102243.91
2023-04-26T07:28:57.337Z,102232.50
2023-04-26T07:31:23.956Z,102234.47
2023-04-26T07:33:53.752Z,102232.78
2023-04-26T07:36:25.032Z,102234.88
2023-04-26T07:38:52.220Z,102236.31
2023-04-26T07:41:19.920Z,102231.28
2023-04-26T07:43:48.648Z,102230.97
2023-04-26T07:46:16.137Z,102240.53
2023-04-26T07:48:43.111Z,102245.00
2023-04-26T07:51:14.062Z,102240.34
2023-04-26T07:53:41.379Z,102246.41
2023-04-26T07:56:09.199Z,102248.28
2023-04-26T07:58:37.462Z,102249.28
2023-04-26T08:01:05.216Z,102246.34
2023-04-26T08:03:33.475Z,102250.25
2023-04-26T08:06:01.317Z,102248.22
2023-04-26T08:08:28.361Z,102250.94
2023-04-26T08:10:55.833Z,102248.06
2023-04-26T08:13:26.324Z,102246.81
2023-04-26T08:15:56.351Z,102244.00
2023-04-26T08:18:23.190Z,102251.59
2023-04-26T08:20:50.106Z,102246.00
2023-04-26T08:23:19.848Z,102236.09
2023-04-26T08:25:49.868Z,102254.94
2023-04-26T08:28:18.703Z,102252.19
2023-04-26T08:30:45.796Z,102251.34
2023-04-26T08:33:13.230Z,102251.13
2023-04-26T08:35:41.272Z,102255.81
2023-04-26T08:38:12.895Z,102252.25
2023-04-26T08:40:42.109Z,102247.66
2023-04-26T08:43:11.282Z,102243.41
2023-04-26T08:45:42.448Z,102252.09
2023-04-26T08:48:15.097Z,102249.19
2023-04-26T08:50:47.011Z,102248.03
2023-04-26T08:53:21.707Z,102248.97
2023-04-26T08:55:51.560Z,102254.41
2023-04-26T08:58:18.906Z,102260.84
2023-04-26T09:00:46.409Z,102249.16
2023-04-26T09:03:14.238Z,102249.94
2023-04-26T09:05:44.308Z,102252.53
2023-04-26T09:08:16.839Z,102255.88
2023-04-26T09:10:44.011Z,102252.78
2023-04-26T09:13:11.504Z,102243.34
2023-04-26T09:15:42.551Z,102253.19
2023-04-26T09:18:26.620Z,102222.44
2023-04-26T09:21:08.141Z,102223.69
2023-04-26T09:23:37.035Z,102243.44
2023-04-26T09:26:23.541Z,102243.38
2023-04-26T09:28:51.269Z,102252.06
2023-04-26T09:31:42.372Z,102246.19
2023-04-26T09:34:11.081Z,102253.25
2023-04-26T09:36:57.928Z,102251.03
2023-04-26T09:39:38.613Z,102265.34
2023-04-26T09:42:09.698Z,102264.53
2023-04-26T09:44:36.273Z,102266.19
2023-04-26T09:47:22.530Z,102266.38
2023-04-26T09:49:52.171Z,102264.00
2023-04-26T09:52:19.726Z,102267.66
2023-04-26T09:54:49.788Z,102267.78
2023-04-26T09:57:18.029Z,102274.88
2023-04-26T09:59:54.210Z,102253.41
2023-04-26T10:02:25.625Z,102271.06
2023-04-26T10:04:55.283Z,102281.56
2023-04-26T10:07:24.356Z,102277.06
2023-04-26T10:09:51.485Z,102262.09
2023-04-26T10:12:21.672Z,102263.56
2023-04-26T10:14:50.102Z,102259.25
2023-04-26T10:17:20.190Z,102270.34
2023-04-26T10:19:50.397Z,102254.38
2023-04-26T10:22:32.686Z,102216.16
2023-04-26T10:25:02.756Z,102212.34
2023-04-26T10:27:48.429Z,102260.34
2023-04-26T10:30:17.569Z,102245.34
2023-04-26T10:33:08.412Z,102259.63
2023-04-26T10:35:38.647Z,102231.28
2023-04-26T10:38:26.038Z,102252.09
2023-04-26T10:40:54.104Z,102257.13
2023-04-26T10:43:28.454Z,102233.41
2023-04-26T10:45:58.075Z,102234.44
2023-04-26T10:48:31.519Z,102250.06
2023-04-26T10:51:18.147Z,102243.75
2023-04-26T10:53:47.663Z,102245.91
2023-04-26T10:56:24.092Z,102242.56
2023-04-26T10:59:22.632Z,102241.78
2023-04-26T11:01:56.222Z,102234.75
2023-04-26T11:04:47.749Z,102210.06
2023-04-26T11:07:14.829Z,102227.22
2023-04-26T11:09:51.027Z,102212.25
2023-04-26T11:12:17.856Z,102197.38
2023-04-26T11:14:49.000Z,102211.59
2023-04-26T11:17:18.594Z,102222.25
2023-04-26T11:19:47.128Z,102232.38
2023-04-26T11:22:15.295Z,102213.94
2023-04-26T11:24:43.336Z,102230.31
2023-04-26T11:27:11.923Z,102224.16
2023-04-26T11:29:39.107Z,102223.56
2023-04-26T11:32:06.874Z,102222.19
2023-04-26T11:34:41.663Z,102226.00
2023-04-26T11:37:09.057Z,102217.63
2023-04-26T11:39:37.815Z,102202.38
2023-04-26T11:42:10.525Z,102223.78
2023-04-26T11:44:38.673Z,102218.00
2023-04-26T11:47:08.785Z,102220.97
2023-04-26T11:49:40.135Z,102223.91
2023-04-26T11:52:08.954Z,102225.19
2023-04-26T11:54:38.158Z,102231.22
2023-04-26T11:57:17.266Z,102199.66
2023-04-26T11:59:45.937Z,102237.25
2023-04-26T12:02:13.408Z,102230.88
2023-04-26T12:04:41.417Z,102234.50
2023-04-26T12:07:08.939Z,102234.88
2023-04-26T12:09:36.886Z,102226.75
2023-04-26T12:12:08.513Z,102225.16
2023-04-26T12:14:38.350Z,102210.06
2023-04-26T12:17:08.762Z,102193.50
2023-04-26T12:19:37.263Z,102188.34
2023-04-26T12:22:08.657Z,102213.25
2023-04-26T12:24:37.848Z,102217.03
2023-04-26T12:27:07.438Z,102235.00
2023-04-26T12:29:37.685Z,102232.97
2023-04-26T12:32:05.389Z,102231.38
2023-04-26T12:34:33.344Z,102239.84
2023-04-26T12:37:00.446Z,102235.19
2023-04-26T12:39:27.136Z,102244.84
2023-04-26T12:41:55.220Z,102243.00
2023-04-26T12:44:25.996Z,102221.81
2023-04-26T12:46:54.673Z,102219.19
2023-04-26T12:49:21.707Z,102209.25
2023-04-26T12:51:48.620Z,102229.41
2023-04-26T12:54:16.766Z,102214.75
2023-04-26T12:56:46.823Z,102227.13
2023-04-26T12:59:14.876Z,102207.22
2023-04-26T13:01:43.133Z,102242.13
2023-04-26T13:04:10.398Z,102240.41
2023-04-26T13:06:40.384Z,102242.59
2023-04-26T13:09:12.926Z,102238.22
2023-04-26T13:11:40.734Z,102239.88
2023-04-26T13:14:08.042Z,102236.09
2023-04-26T13:16:35.017Z,102233.31
2023-04-26T13:19:03.218Z,102237.50
2023-04-26T13:21:32.907Z,102235.66
2023-04-26T13:24:02.019Z,102240.53
2023-04-26T13:26:32.840Z,102239.69
2023-04-26T13:29:00.994Z,102236.81
2023-04-26T13:31:27.595Z,102245.66
2023-04-26T13:33:55.888Z,102240.84
2023-04-26T13:36:23.341Z,102242.03
2023-04-26T13:38:52.112Z,102241.28
2023-04-26T13:41:18.975Z,102254.09
2023-04-26T13:43:45.998Z,102244.75
2023-04-26T13:46:12.896Z,102251.31
2023-04-26T13:48:41.653Z,102254.41
2023-04-26T13:51:08.583Z,102244.28
2023-04-26T13:53:36.885Z,102226.94
2023-04-26T13:56:09.851Z,102215.38
2023-04-26T13:58:37.634Z,102247.97
2023-04-26T14:01:07.968Z,102228.16
2023-04-26T14:03:36.966Z,102232.78
2023-04-26T14:06:05.904Z,102241.41
2023-04-26T14:08:32.651Z,102246.22
2023-04-26T14:10:59.991Z,102208.22
2023-04-26T14:13:26.857Z,102198.94
2023-04-26T14:15:53.923Z,102216.28
2023-04-26T14:18:22.133Z,102242.16
2023-04-26T14:20:51.037Z,102233.88
2023-04-26T14:23:18.623Z,102241.91
2023-04-26T14:25:45.875Z,102255.00
2023-04-26T14:28:16.822Z,102247.53
2023-04-26T14:30:49.097Z,102238.75
2023-04-26T14:33:17.416Z,102226.50
2023-04-26T14:35:44.265Z,102256.28
2023-04-26T14:38:12.110Z,102253.63
2023-04-26T14:40:40.499Z,102250.91
2023-04-26T14:43:07.425Z,102233.50
2023-04-26T14:45:44.164Z,102228.09
2023-04-26T14:48:14.233Z,102254.75
2023-04-26T14:50:41.795Z,102234.66
2023-04-26T14:53:08.877Z,102249.38
2023-04-26T14:55:36.070Z,102228.91
2023-04-26T14:58:04.521Z,102222.13
2023-04-26T15:00:31.771Z,102242.38
2023-04-26T15:02:58.994Z,102238.81
2023-04-26T15:05:28.860Z,102238.31
2023-04-26T15:07:57.061Z,102238.94
2023-04-26T15:10:23.865Z,102246.13
2023-04-26T15:12:50.547Z,102241.88
2023-04-26T15:15:18.117Z,102239.47
2023-04-26T15:17:44.961Z,102240.88
2023-04-26T15:20:12.822Z,102244.91
2023-04-26T15:22:43.625Z,102235.69
2023-04-26T15:25:11.879Z,102238.00
2023-04-26T15:27:38.561Z,102236.47
2023-04-26T15:30:07.223Z,102245.03
2023-04-26T15:32:35.936Z,102219.91
2023-04-26T15:35:03.167Z,102200.53
2023-04-26T15:37:33.257Z,102227.50
2023-04-26T15:40:00.299Z,102231.28
2023-04-26T15:42:27.577Z,102235.44
2023-04-26T15:44:55.743Z,102235.03
2023-04-26T15:47:23.553Z,102230.47
2023-04-26T15:49:51.920Z,102233.44
2023-04-26T15:52:19.795Z,102228.56
2023-04-26T15:54:47.955Z,102243.41
2023-04-26T15:57:15.035Z,102241.81
2023-04-26T15:59:45.179Z,102242.66
2023-04-26T16:02:13.401Z,102239.34
2023-04-26T16:04:42.356Z,102239.75
2023-04-26T16:07:10.234Z,102242.41
2023-04-26T16:09:38.000Z,102235.31
2023-04-26T16:12:08.213Z,102235.44
2023-04-26T16:14:35.073Z,102242.91
2023-04-26T16:17:04.674Z,102212.03
2023-04-26T16:19:32.123Z,102223.00
2023-04-26T16:22:00.146Z,102253.16
2023-04-26T16:24:29.512Z,102259.81
2023-04-26T16:26:58.140Z,102258.38
2023-04-26T16:29:26.465Z,102246.94
2023-04-26T16:31:56.612Z,102230.06
2023-04-26T16:34:24.650Z,102244.84
2023-04-26T16:36:54.323Z,102212.72
2023-04-26T16:39:23.630Z,102216.59
2023-04-26T16:41:53.934Z,102245.56
2023-04-26T16:44:21.209Z,102247.41
2023-04-26T16:46:48.685Z,102250.41
2023-04-26T16:49:15.833Z,102249.59
2023-04-26T16:51:51.759Z,102254.97
2023-04-26T16:54:18.434Z,102251.00
2023-04-26T16:56:45.961Z,102237.78
2023-04-26T16:59:13.250Z,102216.16
2023-04-26T17:01:40.331Z,102228.00
2023-04-26T17:04:13.852Z,102243.22
2023-04-26T17:06:40.856Z,102241.31
2023-04-26T17:09:08.851Z,102249.16
2023-04-26T17:11:37.490Z,102253.69
2023-04-26T17:14:07.244Z,102255.47
2023-04-26T17:16:34.517Z,102254.16
2023-04-26T17:19:01.399Z,102253.28
2023-04-26T17:21:28.469Z,102261.34
2023-04-26T17:23:56.416Z,102251.84
2023-04-26T17:26:23.657Z,102257.53
2023-04-26T17:28:51.385Z,102226.50
2023-04-26T17:31:19.292Z,102213.84
2023-04-26T17:33:46.720Z,102255.03
2023-04-26T17:36:13.698Z,102248.25
2023-04-26T17:38:40.605Z,102254.34
2023-04-26T17:41:08.488Z,102252.38
2023-04-26T17:43:40.495Z,102256.22
2023-04-26T17:46:07.572Z,102260.94
2023-04-26T17:48:37.127Z,102264.56
2023-04-26T17:51:06.332Z,102270.94
2023-04-26T17:53:35.482Z,102252.19
2023-04-26T17:56:07.252Z,102233.91
2023-04-26T17:58:37.415Z,102259.25
2023-04-26T18:01:07.733Z,102279.03
2023-04-26T18:03:37.591Z,102256.03
2023-04-26T18:06:07.523Z,102264.59
2023-04-26T18:08:34.351Z,102267.34
2023-04-26T18:11:01.372Z,102277.59
2023-04-26T18:13:28.530Z,102281.03
2023-04-26T18:15:56.194Z,102277.13
2023-04-26T18:18:24.048Z,102273.50
2023-04-26T18:20:52.339Z,102265.91
2023-04-26T18:23:21.760Z,102273.59
2023-04-26T18:25:50.846Z,102287.16
2023-04-26T18:28:17.806Z,102282.38
2023-04-26T18:30:46.283Z,102288.44
2023-04-26T18:33:15.874Z,102269.22
2023-04-26T18:35:43.937Z,102290.34
2023-04-26T18:38:10.675Z,102275.16
2023-04-26T18:40:37.728Z,102250.41
2023-04-26T18:43:05.659Z,102298.88
2023-04-26T18:45:35.003Z,102290.31
2023-04-26T18:48:02.771Z,102293.75
2023-04-26T18:50:29.838Z,102287.81
2023-04-26T18:52:59.796Z,102299.56
2023-04-26T18:55:27.525Z,102297.13
2023-04-26T18:57:54.323Z,102284.31
2023-04-26T19:00:21.517Z,102301.44
2023-04-26T19:02:48.949Z,102292.19
2023-04-26T19:05:16.113Z,102279.41
2023-04-26T19:07:43.332Z,102304.63
2023-04-26T19:10:15.375Z,102300.97
2023-04-26T19:12:42.403Z,102282.91
2023-04-26T19:15:09.883Z,102302.06
2023-04-26T19:17:37.294Z,102292.06
2023-04-26T19:20:10.100Z,102315.47
2023-04-26T19:22:36.995Z,102285.41
2023-04-26T19:25:05.601Z,102315.56
2023-04-26T19:27:35.904Z,102299.97
2023-04-26T19:30:07.137Z,102276.91
2023-04-26T19:32:34.334Z,102309.88
2023-04-26T19:35:02.982Z,102307.47
2023-04-26T19:37:33.131Z,102317.16
2023-04-26T19:39:59.821Z,102328.38
2023-04-26T19:42:27.706Z,102301.78
2023-04-26T19:44:54.552Z,102300.84
2023-04-26T19:47:23.946Z,102330.16
2023-04-26T19:49:53.017Z,102312.34
2023-04-26T19:52:20.914Z,102311.19
2023-04-26T19:54:47.912Z,102328.84
2023-04-26T19:57:15.318Z,102309.59
2023-04-26T19:59:43.891Z,102335.84
2023-04-26T20:02:11.887Z,102332.53
2023-04-26T20:04:43.509Z,102333.63
2023-04-26T20:07:11.714Z,102289.38
2023-04-26T20:09:38.528Z,102292.94
2023-04-26T20:12:05.903Z,102334.47
2023-04-26T20:14:38.151Z,102308.47
2023-04-26T20:17:08.173Z,102303.47
2023-04-26T20:19:38.214Z,102345.00
2023-04-26T20:22:12.114Z,102293.88
2023-04-26T20:24:41.511Z,102309.44
2023-04-26T20:27:08.666Z,102317.59
2023-04-26T20:29:48.896Z,102315.38
2023-04-26T20:32:20.073Z,102326.63
2023-04-26T20:34:49.156Z,102347.28
2023-04-26T20:37:24.301Z,102307.66
2023-04-26T20:40:00.865Z,102297.50
2023-04-26T20:42:31.741Z,102322.63
2023-04-26T20:45:01.799Z,102307.72
2023-04-26T20:47:31.107Z,102320.94
2023-04-26T20:49:58.154Z,102315.69
2023-04-26T20:52:26.534Z,102343.38
2023-04-26T20:54:53.292Z,102344.91
2023-04-26T20:57:23.700Z,102309.56
2023-04-26T20:59:53.780Z,102307.78
2023-04-26T21:02:21.993Z,102348.47
2023-04-26T21:04:53.540Z,102312.44
2023-04-26T21:07:27.850Z,102345.22
2023-04-26T21:09:57.536Z,102312.94
2023-04-26T21:12:24.634Z,102305.13
2023-04-26T21:14:53.369Z,102297.44
2023-04-26T21:17:24.591Z,102304.28
2023-04-26T21:20:01.175Z,102281.09
2023-04-26T21:22:30.606Z,102286.28
2023-04-26T21:24:57.373Z,102302.94
2023-04-26T21:27:27.382Z,102333.25
2023-04-26T21:29:57.854Z,102302.31
2023-04-26T21:32:27.835Z,102290.53
2023-04-26T21:35:04.628Z,102344.97
2023-04-26T21:37:36.478Z,102324.38
2023-04-26T21:40:07.119Z,102349.47
2023-04-26T21:42:36.561Z,102313.03
2023-04-26T21:45:15.952Z,102340.88
2023-04-26T21:47:51.780Z,102329.75
2023-04-26T21:50:26.536Z,102333.94
2023-04-26T21:52:59.530Z,102332.22
2023-04-26T21:55:36.098Z,102295.16
2023-04-26T21:58:07.212Z,102313.69
2023-04-26T22:00:52.754Z,102342.50
2023-04-26T22:03:21.506Z,102349.44
2023-04-26T22:05:59.865Z,102355.06
2023-04-26T22:08:33.836Z,102333.56
2023-04-26T22:11:10.824Z,102325.19
2023-04-26T22:13:38.080Z,102354.00
2023-04-26T22:16:07.499Z,102315.09
2023-04-26T22:18:38.297Z,102351.75
2023-04-26T22:21:06.468Z,102320.00
2023-04-26T22:23:48.338Z,102320.22
2023-04-26T22:26:18.013Z,102326.59
2023-04-26T22:29:05.384Z,102321.56
2023-04-26T22:31:39.412Z,102326.31
2023-04-26T22:34:06.996Z,102352.44
2023-04-26T22:36:36.382Z,102347.47
2023-04-26T22:39:04.007Z,102316.34
2023-04-26T22:41:37.498Z,102338.13
2023-04-26T22:44:05.289Z,102336.59
2023-04-26T22:46:33.087Z,102345.16
2023-04-26T22:49:06.545Z,102347.91
2023-04-26T22:51:40.662Z,102337.69
2023-04-26T22:54:24.130Z,102318.69
2023-04-26T22:57:02.546Z,102321.41
2023-04-26T22:59:34.952Z,102346.69
2023-04-26T23:02:02.255Z,102327.69
2023-04-26T23:04:43.787Z,102376.22
2023-04-26T23:07:14.854Z,102374.63
2023-04-26T23:09:44.529Z,102366.03
2023-04-26T23:12:12.020Z,102348.78
2023-04-26T23:14:38.969Z,102364.53
2023-04-26T23:17:12.119Z,102377.50
2023-04-26T23:19:40.298Z,102351.66
2023-04-26T23:22:14.061Z,102372.47
2023-04-26T23:24:41.002Z,102371.66
2023-04-26T23:27:08.059Z,102341.44
2023-04-26T23:29:38.287Z,102391.66
2023-04-26T23:32:08.197Z,102356.28
2023-04-26T23:34:42.587Z,102347.72
2023-04-26T23:37:11.800Z,102385.78
2023-04-26T23:39:41.690Z,102363.31
2023-04-26T23:42:11.010Z,102352.06
2023-04-26T23:44:40.007Z,102400.66
2023-04-26T23:47:07.269Z,102405.03
2023-04-26T23:49:34.289Z,102352.19
2023-04-26T23:52:02.028Z,102371.25
2023-04-26T23:54:28.765Z,102381.75
2023-04-26T23:56:55.947Z,102404.41
2023-04-26T23:59:23.277Z,102420.16
